Hicksville, OH

7:43 PM EDT on April 25, 2015 (GMT -0400)
Hicksville | | Change Station
CLOSE
Current Station
Personal Weather Station
Location: Hicksville, OH
Elevation: 774 ft
Nearby Weather Stations

Elev 774 ft 41.30 °N, 84.76 °W | Updated 4 minutes ago

Overcast
Overcast
43.7 °F
Feels Like 44 °F
N
1.1
Wind Variable Wind from ESE

Today
High -- | Low -- °F
--% Chance of Precip.
Yesterday
High -- | Low -- °F
Precip. -- in
6:44 AM 8:29 PM
Waxing Crescent, 50% visible
Pressure 29.77 in
Visibility 10.0 miles
Clouds Mostly Cloudy 3800 ft
Mostly Cloudy 4800 ft
Mostly Cloudy 7000 ft
Windchill 44 °F
Dew Point 37 °F
Humidity 77%
Rainfall 0.07 in
Snow Depth Not available.
UV 1 out of 12
Pollen 6.60 out of 12
Air Quality Not available.
Flu Activity Regional
METAR KDFI 252253Z AUTO 07010KT 10SM BKN038 BKN048 BKN070 07/02 A2975 RMK AO2 RAE11B30E44 SLP079 P0000 T00670017

More Conditions Fewer Conditions

Pressure 29.77 in
Visibility 10.0 miles
Clouds Mostly Cloudy 3800 ft
Mostly Cloudy 4800 ft
Mostly Cloudy 7000 ft
Windchill 44 °F
Dew Point 37 °F
Humidity 77%
Rainfall 0.07 in
Snow Depth Not available.
UV 1 out of 12
Pollen 6.60 out of 12
Air Quality Not available.
Flu Activity Regional
METAR KDFI 252253Z AUTO 07010KT 10SM BKN038 BKN048 BKN070 07/02 A2975 RMK AO2 RAE11B30E44 SLP079 P0000 T00670017

More Conditions Fewer Conditions

10-Day Weather Forecast

Almanac

Astronomy

Apr. 25, 2015 Rise Set
Actual Time
Civil Twilight
Nautical Twilight
Astronomical Twilight
Moon
Length of Visible Light
Length of Day
Tomorrow will be .
, % of the Moon is Illuminated

Today's Extremes

State Highs State Lows

Community

WunderPhotos

Upload Photos

1,816,850 photos uploaded!

WunderBlogs® & News

Nearby

Air Quality

  Air Quality AQ Index Pollutant
Not available.

Snow Depth

Station Depth Elevation

Earthquake Activity

City Distance Mag. Time & Date
Minimum magnitude displayed is 2.5.

Coastal Water Temperatures

Place Temperature

Stations

Nearby Weather Stations

Station Location Temp. Windchill Dew Point Humidity Wind Precip. Elev Updated Type